sensor_id;sensor_type;location;lat;lon;timestamp;P1;durP1;ratioP1;P2;durP2;ratioP2
75012;SDS011;63567;49.956;20.130;2023-01-05T00:01:14;1.97;;;0.77;;
75012;SDS011;63567;49.956;20.130;2023-01-05T00:03:40;1.47;;;0.50;;
75012;SDS011;63567;49.956;20.130;2023-01-05T00:06:06;1.35;;;0.47;;
75012;SDS011;63567;49.956;20.130;2023-01-05T00:08:34;2.03;;;0.70;;
75012;SDS011;63567;49.956;20.130;2023-01-05T00:11:16;1.30;;;0.50;;
75012;SDS011;63567;49.956;20.130;2023-01-05T00:14:02;1.83;;;0.45;;
75012;SDS011;63567;49.956;20.130;2023-01-05T00:16:47;1.90;;;0.50;;
75012;SDS011;63567;49.956;20.130;2023-01-05T00:19:31;1.60;;;0.50;;
75012;SDS011;63567;49.956;20.130;2023-01-05T00:22:20;1.45;;;0.50;;
75012;SDS011;63567;49.956;20.130;2023-01-05T00:24:56;1.95;;;0.50;;
75012;SDS011;63567;49.956;20.130;2023-01-05T00:27:25;1.73;;;0.60;;
75012;SDS011;63567;49.956;20.130;2023-01-05T00:29:50;1.02;;;0.30;;
75012;SDS011;63567;49.956;20.130;2023-01-05T00:32:15;1.60;;;0.50;;
75012;SDS011;63567;49.956;20.130;2023-01-05T00:34:40;2.30;;;0.67;;
75012;SDS011;63567;49.956;20.130;2023-01-05T00:37:06;2.10;;;0.73;;
75012;SDS011;63567;49.956;20.130;2023-01-05T00:39:31;2.40;;;0.50;;
75012;SDS011;63567;49.956;20.130;2023-01-05T00:41:56;1.50;;;0.40;;
75012;SDS011;63567;49.956;20.130;2023-01-05T00:44:21;1.40;;;0.50;;
75012;SDS011;63567;49.956;20.130;2023-01-05T00:46:47;2.07;;;0.50;;
75012;SDS011;63567;49.956;20.130;2023-01-05T00:49:12;1.77;;;0.50;;
75012;SDS011;63567;49.956;20.130;2023-01-05T00:51:37;1.43;;;0.40;;
75012;SDS011;63567;49.956;20.130;2023-01-05T00:54:03;1.20;;;0.40;;
75012;SDS011;63567;49.956;20.130;2023-01-05T00:56:28;0.97;;;0.20;;
75012;SDS011;63567;49.956;20.130;2023-01-05T00:58:53;1.57;;;0.40;;
75012;SDS011;63567;49.956;20.130;2023-01-05T01:01:21;1.27;;;0.30;;
75012;SDS011;63567;49.956;20.130;2023-01-05T01:03:46;1.00;;;0.20;;
75012;SDS011;63567;49.956;20.130;2023-01-05T01:06:12;1.97;;;0.40;;
75012;SDS011;63567;49.956;20.130;2023-01-05T01:08:37;1.83;;;0.30;;
75012;SDS011;63567;49.956;20.130;2023-01-05T01:11:06;1.33;;;0.30;;
75012;SDS011;63567;49.956;20.130;2023-01-05T01:13:33;1.38;;;0.40;;
75012;SDS011;63567;49.956;20.130;2023-01-05T01:16:08;1.35;;;0.43;;
75012;SDS011;63567;49.956;20.130;2023-01-05T01:18:35;1.13;;;0.30;;
75012;SDS011;63567;49.956;20.130;2023-01-05T01:21:00;1.30;;;0.30;;
75012;SDS011;63567;49.956;20.130;2023-01-05T01:23:26;0.98;;;0.20;;
75012;SDS011;63567;49.956;20.130;2023-01-05T01:25:51;1.33;;;0.40;;
75012;SDS011;63567;49.956;20.130;2023-01-05T01:28:16;1.10;;;0.30;;
75012;SDS011;63567;49.956;20.130;2023-01-05T01:30:42;1.20;;;0.30;;
75012;SDS011;63567;49.956;20.130;2023-01-05T01:33:07;1.40;;;0.40;;
75012;SDS011;63567;49.956;20.130;2023-01-05T01:35:32;1.20;;;0.30;;
75012;SDS011;63567;49.956;20.130;2023-01-05T01:37:57;0.93;;;0.23;;
75012;SDS011;63567;49.956;20.130;2023-01-05T01:40:23;1.60;;;0.40;;
75012;SDS011;63567;49.956;20.130;2023-01-05T01:42:48;0.97;;;0.20;;
75012;SDS011;63567;49.956;20.130;2023-01-05T01:45:17;1.00;;;0.30;;
75012;SDS011;63567;49.956;20.130;2023-01-05T01:47:46;0.90;;;0.20;;
75012;SDS011;63567;49.956;20.130;2023-01-05T01:50:20;1.65;;;0.30;;
75012;SDS011;63567;49.956;20.130;2023-01-05T01:52:50;1.13;;;0.30;;
75012;SDS011;63567;49.956;20.130;2023-01-05T01:55:20;1.00;;;0.30;;
75012;SDS011;63567;49.956;20.130;2023-01-05T01:57:45;1.48;;;0.20;;
75012;SDS011;63567;49.956;20.130;2023-01-05T02:00:12;1.48;;;0.20;;
75012;SDS011;63567;49.956;20.130;2023-01-05T02:02:39;1.33;;;0.40;;
75012;SDS011;63567;49.956;20.130;2023-01-05T02:05:06;1.15;;;0.30;;
75012;SDS011;63567;49.956;20.130;2023-01-05T02:07:33;1.23;;;0.30;;
75012;SDS011;63567;49.956;20.130;2023-01-05T02:10:03;0.90;;;0.30;;
75012;SDS011;63567;49.956;20.130;2023-01-05T02:15:08;1.30;;;0.30;;
75012;SDS011;63567;49.956;20.130;2023-01-05T02:17:57;1.27;;;0.20;;
75012;SDS011;63567;49.956;20.130;2023-01-05T02:20:39;1.42;;;0.40;;
75012;SDS011;63567;49.956;20.130;2023-01-05T02:23:41;0.88;;;0.20;;
75012;SDS011;63567;49.956;20.130;2023-01-05T02:29:10;0.88;;;0.20;;
75012;SDS011;63567;49.956;20.130;2023-01-05T02:40:07;0.95;;;0.30;;
75012;SDS011;63567;49.956;20.130;2023-01-05T02:42:38;1.25;;;0.38;;
75012;SDS011;63567;49.956;20.130;2023-01-05T02:45:05;1.10;;;0.30;;
75012;SDS011;63567;49.956;20.130;2023-01-05T02:47:39;0.93;;;0.30;;
75012;SDS011;63567;49.956;20.130;2023-01-05T02:50:09;0.90;;;0.30;;
75012;SDS011;63567;49.956;20.130;2023-01-05T02:52:52;1.05;;;0.30;;
75012;SDS011;63567;49.956;20.130;2023-01-05T02:55:24;1.00;;;0.20;;
75012;SDS011;63567;49.956;20.130;2023-01-05T02:58:08;0.70;;;0.30;;
75012;SDS011;63567;49.956;20.130;2023-01-05T03:00:39;0.80;;;0.20;;
75012;SDS011;63567;49.956;20.130;2023-01-05T03:03:53;1.10;;;0.30;;
75012;SDS011;63567;49.956;20.130;2023-01-05T03:06:19;0.90;;;0.28;;
75012;SDS011;63567;49.956;20.130;2023-01-05T03:08:50;1.20;;;0.30;;
75012;SDS011;63567;49.956;20.130;2023-01-05T03:11:19;2.17;;;1.00;;
75012;SDS011;63567;49.956;20.130;2023-01-05T03:14:19;8.15;;;4.03;;
75012;SDS011;63567;49.956;20.130;2023-01-05T03:16:49;10.77;;;4.75;;
75012;SDS011;63567;49.956;20.130;2023-01-05T03:19:18;2.10;;;0.57;;
75012;SDS011;63567;49.956;20.130;2023-01-05T03:22:02;1.95;;;0.55;;
75012;SDS011;63567;49.956;20.130;2023-01-05T03:24:50;2.20;;;0.68;;
75012;SDS011;63567;49.956;20.130;2023-01-05T03:27:34;1.80;;;0.80;;
75012;SDS011;63567;49.956;20.130;2023-01-05T03:30:19;2.10;;;0.40;;
75012;SDS011;63567;49.956;20.130;2023-01-05T03:33:11;10.05;;;3.30;;
75012;SDS011;63567;49.956;20.130;2023-01-05T03:36:01;6.20;;;3.05;;
75012;SDS011;63567;49.956;20.130;2023-01-05T03:38:31;5.72;;;1.73;;
75012;SDS011;63567;49.956;20.130;2023-01-05T03:41:08;5.03;;;1.00;;
75012;SDS011;63567;49.956;20.130;2023-01-05T03:43:35;2.60;;;0.70;;
75012;SDS011;63567;49.956;20.130;2023-01-05T03:46:01;2.55;;;0.77;;
75012;SDS011;63567;49.956;20.130;2023-01-05T03:48:34;1.92;;;0.50;;
75012;SDS011;63567;49.956;20.130;2023-01-05T03:50:59;2.53;;;0.63;;
75012;SDS011;63567;49.956;20.130;2023-01-05T03:53:24;1.90;;;0.90;;
75012;SDS011;63567;49.956;20.130;2023-01-05T03:55:50;2.87;;;0.90;;
75012;SDS011;63567;49.956;20.130;2023-01-05T03:58:15;2.97;;;1.17;;
75012;SDS011;63567;49.956;20.130;2023-01-05T04:00:40;2.30;;;0.47;;
75012;SDS011;63567;49.956;20.130;2023-01-05T04:03:05;2.33;;;0.40;;
75012;SDS011;63567;49.956;20.130;2023-01-05T04:05:32;2.45;;;0.50;;
75012;SDS011;63567;49.956;20.130;2023-01-05T04:07:58;1.77;;;0.30;;
75012;SDS011;63567;49.956;20.130;2023-01-05T04:10:23;1.13;;;0.20;;
75012;SDS011;63567;49.956;20.130;2023-01-05T04:12:48;1.90;;;0.70;;
75012;SDS011;63567;49.956;20.130;2023-01-05T04:15:13;1.77;;;0.60;;
75012;SDS011;63567;49.956;20.130;2023-01-05T04:17:39;2.57;;;0.93;;
75012;SDS011;63567;49.956;20.130;2023-01-05T04:20:04;1.07;;;0.30;;
75012;SDS011;63567;49.956;20.130;2023-01-05T04:22:30;1.35;;;0.30;;
75012;SDS011;63567;49.956;20.130;2023-01-05T04:24:56;1.80;;;0.50;;
75012;SDS011;63567;49.956;20.130;2023-01-05T04:27:21;1.13;;;0.30;;
75012;SDS011;63567;49.956;20.130;2023-01-05T04:29:47;2.57;;;0.60;;
75012;SDS011;63567;49.956;20.130;2023-01-05T04:32:12;1.43;;;0.30;;
75012;SDS011;63567;49.956;20.130;2023-01-05T04:34:37;1.93;;;0.40;;
75012;SDS011;63567;49.956;20.130;2023-01-05T04:37:02;1.63;;;0.53;;
75012;SDS011;63567;49.956;20.130;2023-01-05T04:39:28;1.63;;;0.60;;
75012;SDS011;63567;49.956;20.130;2023-01-05T04:41:53;0.90;;;0.30;;
75012;SDS011;63567;49.956;20.130;2023-01-05T04:44:19;2.50;;;0.70;;
75012;SDS011;63567;49.956;20.130;2023-01-05T04:46:44;3.03;;;0.60;;
75012;SDS011;63567;49.956;20.130;2023-01-05T04:49:09;3.97;;;0.90;;
75012;SDS011;63567;49.956;20.130;2023-01-05T04:51:35;4.80;;;1.10;;
75012;SDS011;63567;49.956;20.130;2023-01-05T04:54:00;1.92;;;0.60;;
75012;SDS011;63567;49.956;20.130;2023-01-05T04:56:25;3.30;;;1.00;;
75012;SDS011;63567;49.956;20.130;2023-01-05T04:58:51;2.03;;;0.40;;
75012;SDS011;63567;49.956;20.130;2023-01-05T05:01:16;1.50;;;0.40;;
75012;SDS011;63567;49.956;20.130;2023-01-05T05:03:41;1.47;;;0.57;;
75012;SDS011;63567;49.956;20.130;2023-01-05T05:06:06;1.90;;;0.60;;
75012;SDS011;63567;49.956;20.130;2023-01-05T05:08:32;1.73;;;0.50;;
75012;SDS011;63567;49.956;20.130;2023-01-05T05:10:57;1.40;;;0.40;;
75012;SDS011;63567;49.956;20.130;2023-01-05T05:13:23;2.97;;;0.50;;
75012;SDS011;63567;49.956;20.130;2023-01-05T05:15:49;2.70;;;0.55;;
75012;SDS011;63567;49.956;20.130;2023-01-05T05:18:14;1.87;;;0.50;;
75012;SDS011;63567;49.956;20.130;2023-01-05T05:20:40;2.70;;;0.50;;
75012;SDS011;63567;49.956;20.130;2023-01-05T05:23:08;1.25;;;0.35;;
75012;SDS011;63567;49.956;20.130;2023-01-05T05:25:33;1.40;;;0.40;;
75012;SDS011;63567;49.956;20.130;2023-01-05T05:27:58;1.70;;;0.50;;
75012;SDS011;63567;49.956;20.130;2023-01-05T05:30:24;1.97;;;0.40;;
75012;SDS011;63567;49.956;20.130;2023-01-05T05:32:49;1.03;;;0.40;;
75012;SDS011;63567;49.956;20.130;2023-01-05T05:35:14;0.90;;;0.33;;
75012;SDS011;63567;49.956;20.130;2023-01-05T05:37:39;1.00;;;0.20;;
75012;SDS011;63567;49.956;20.130;2023-01-05T05:40:05;1.80;;;0.40;;
75012;SDS011;63567;49.956;20.130;2023-01-05T05:42:31;1.25;;;0.20;;
75012;SDS011;63567;49.956;20.130;2023-01-05T05:44:56;1.40;;;0.30;;
75012;SDS011;63567;49.956;20.130;2023-01-05T05:47:21;0.77;;;0.30;;
75012;SDS011;63567;49.956;20.130;2023-01-05T05:49:46;1.00;;;0.30;;
75012;SDS011;63567;49.956;20.130;2023-01-05T05:52:12;2.03;;;0.40;;
75012;SDS011;63567;49.956;20.130;2023-01-05T05:54:37;0.77;;;0.27;;
75012;SDS011;63567;49.956;20.130;2023-01-05T05:57:02;1.23;;;0.30;;
75012;SDS011;63567;49.956;20.130;2023-01-05T05:59:27;1.63;;;0.40;;
75012;SDS011;63567;49.956;20.130;2023-01-05T06:01:53;2.63;;;0.63;;
75012;SDS011;63567;49.956;20.130;2023-01-05T06:04:18;2.63;;;0.47;;
75012;SDS011;63567;49.956;20.130;2023-01-05T06:06:43;1.53;;;0.40;;
75012;SDS011;63567;49.956;20.130;2023-01-05T06:09:08;1.50;;;0.50;;
75012;SDS011;63567;49.956;20.130;2023-01-05T06:11:34;1.53;;;0.47;;
75012;SDS011;63567;49.956;20.130;2023-01-05T06:13:59;1.73;;;0.40;;
75012;SDS011;63567;49.956;20.130;2023-01-05T06:16:26;1.73;;;0.50;;
75012;SDS011;63567;49.956;20.130;2023-01-05T06:18:51;1.30;;;0.43;;
75012;SDS011;63567;49.956;20.130;2023-01-05T06:21:17;1.23;;;0.37;;
75012;SDS011;63567;49.956;20.130;2023-01-05T06:23:43;1.40;;;0.50;;
75012;SDS011;63567;49.956;20.130;2023-01-05T06:26:08;2.90;;;1.20;;
75012;SDS011;63567;49.956;20.130;2023-01-05T06:28:34;2.73;;;0.80;;
75012;SDS011;63567;49.956;20.130;2023-01-05T06:30:59;4.33;;;0.70;;
75012;SDS011;63567;49.956;20.130;2023-01-05T06:33:24;3.23;;;0.70;;
75012;SDS011;63567;49.956;20.130;2023-01-05T06:35:49;1.53;;;0.63;;
75012;SDS011;63567;49.956;20.130;2023-01-05T06:38:15;1.60;;;0.50;;
75012;SDS011;63567;49.956;20.130;2023-01-05T06:40:40;1.92;;;0.50;;
75012;SDS011;63567;49.956;20.130;2023-01-05T06:43:08;1.55;;;0.60;;
75012;SDS011;63567;49.956;20.130;2023-01-05T06:45:34;1.50;;;0.50;;
75012;SDS011;63567;49.956;20.130;2023-01-05T06:47:59;1.97;;;0.43;;
75012;SDS011;63567;49.956;20.130;2023-01-05T06:50:25;1.80;;;0.50;;
75012;SDS011;63567;49.956;20.130;2023-01-05T06:52:50;2.00;;;0.55;;
75012;SDS011;63567;49.956;20.130;2023-01-05T06:55:15;2.47;;;0.60;;
75012;SDS011;63567;49.956;20.130;2023-01-05T06:57:41;1.15;;;0.40;;
75012;SDS011;63567;49.956;20.130;2023-01-05T07:00:07;1.10;;;0.30;;
75012;SDS011;63567;49.956;20.130;2023-01-05T07:02:34;1.83;;;0.40;;
75012;SDS011;63567;49.956;20.130;2023-01-05T07:05:00;1.63;;;0.60;;
75012;SDS011;63567;49.956;20.130;2023-01-05T07:07:25;1.30;;;0.30;;
75012;SDS011;63567;49.956;20.130;2023-01-05T07:09:50;1.23;;;0.40;;
75012;SDS011;63567;49.956;20.130;2023-01-05T07:12:16;2.65;;;0.82;;
75012;SDS011;63567;49.956;20.130;2023-01-05T07:14:42;1.52;;;0.60;;
75012;SDS011;63567;49.956;20.130;2023-01-05T07:17:07;2.33;;;0.63;;
75012;SDS011;63567;49.956;20.130;2023-01-05T07:19:33;1.92;;;0.70;;
75012;SDS011;63567;49.956;20.130;2023-01-05T07:21:58;2.93;;;1.00;;
75012;SDS011;63567;49.956;20.130;2023-01-05T07:24:23;3.60;;;0.87;;
75012;SDS011;63567;49.956;20.130;2023-01-05T07:26:49;2.47;;;0.87;;
75012;SDS011;63567;49.956;20.130;2023-01-05T07:29:14;2.37;;;0.90;;
75012;SDS011;63567;49.956;20.130;2023-01-05T07:31:40;2.60;;;0.98;;
75012;SDS011;63567;49.956;20.130;2023-01-05T07:34:05;4.53;;;1.20;;
75012;SDS011;63567;49.956;20.130;2023-01-05T07:38:57;3.28;;;1.02;;
75012;SDS011;63567;49.956;20.130;2023-01-05T07:41:23;3.17;;;1.30;;
75012;SDS011;63567;49.956;20.130;2023-01-05T07:43:48;2.63;;;1.00;;
75012;SDS011;63567;49.956;20.130;2023-01-05T07:46:14;2.50;;;0.82;;
75012;SDS011;63567;49.956;20.130;2023-01-05T07:48:39;3.17;;;1.23;;
75012;SDS011;63567;49.956;20.130;2023-01-05T07:51:05;2.45;;;0.43;;
75012;SDS011;63567;49.956;20.130;2023-01-05T07:53:31;1.52;;;0.30;;
75012;SDS011;63567;49.956;20.130;2023-01-05T07:55:59;1.60;;;0.40;;
75012;SDS011;63567;49.956;20.130;2023-01-05T07:58:25;1.20;;;0.32;;
75012;SDS011;63567;49.956;20.130;2023-01-05T08:00:52;2.38;;;0.50;;
75012;SDS011;63567;49.956;20.130;2023-01-05T08:03:17;1.83;;;0.50;;
75012;SDS011;63567;49.956;20.130;2023-01-05T08:05:42;3.78;;;1.02;;
75012;SDS011;63567;49.956;20.130;2023-01-05T08:08:08;2.47;;;0.80;;
75012;SDS011;63567;49.956;20.130;2023-01-05T08:10:33;2.17;;;0.97;;
75012;SDS011;63567;49.956;20.130;2023-01-05T08:13:00;2.53;;;0.80;;
75012;SDS011;63567;49.956;20.130;2023-01-05T08:15:47;2.92;;;1.20;;
75012;SDS011;63567;49.956;20.130;2023-01-05T08:18:12;4.03;;;1.47;;
75012;SDS011;63567;49.956;20.130;2023-01-05T08:20:37;3.33;;;1.30;;
75012;SDS011;63567;49.956;20.130;2023-01-05T08:23:03;2.20;;;1.10;;
75012;SDS011;63567;49.956;20.130;2023-01-05T08:25:28;2.33;;;1.30;;
75012;SDS011;63567;49.956;20.130;2023-01-05T08:27:53;2.40;;;0.95;;
75012;SDS011;63567;49.956;20.130;2023-01-05T08:30:19;3.20;;;1.00;;
75012;SDS011;63567;49.956;20.130;2023-01-05T08:32:44;2.63;;;1.03;;
75012;SDS011;63567;49.956;20.130;2023-01-05T08:35:09;2.20;;;1.13;;
75012;SDS011;63567;49.956;20.130;2023-01-05T08:37:35;2.42;;;1.00;;
75012;SDS011;63567;49.956;20.130;2023-01-05T08:40:00;3.10;;;1.42;;
75012;SDS011;63567;49.956;20.130;2023-01-05T08:42:26;2.03;;;1.00;;
75012;SDS011;63567;49.956;20.130;2023-01-05T08:44:51;4.73;;;1.40;;
75012;SDS011;63567;49.956;20.130;2023-01-05T08:47:16;3.33;;;1.37;;
75012;SDS011;63567;49.956;20.130;2023-01-05T08:49:41;3.27;;;1.20;;
75012;SDS011;63567;49.956;20.130;2023-01-05T08:52:07;3.40;;;1.53;;
75012;SDS011;63567;49.956;20.130;2023-01-05T08:54:32;3.25;;;1.20;;
75012;SDS011;63567;49.956;20.130;2023-01-05T08:56:58;2.28;;;1.00;;
75012;SDS011;63567;49.956;20.130;2023-01-05T08:59:24;3.72;;;1.20;;
75012;SDS011;63567;49.956;20.130;2023-01-05T09:01:49;2.73;;;1.27;;
75012;SDS011;63567;49.956;20.130;2023-01-05T09:04:15;3.40;;;1.08;;
75012;SDS011;63567;49.956;20.130;2023-01-05T09:06:40;3.07;;;1.33;;
75012;SDS011;63567;49.956;20.130;2023-01-05T09:09:05;2.47;;;1.17;;
75012;SDS011;63567;49.956;20.130;2023-01-05T09:11:30;2.07;;;0.73;;
75012;SDS011;63567;49.956;20.130;2023-01-05T09:13:58;2.45;;;1.05;;
75012;SDS011;63567;49.956;20.130;2023-01-05T09:16:26;3.05;;;1.30;;
75012;SDS011;63567;49.956;20.130;2023-01-05T09:18:53;2.40;;;0.90;;
75012;SDS011;63567;49.956;20.130;2023-01-05T09:21:18;2.47;;;1.00;;
75012;SDS011;63567;49.956;20.130;2023-01-05T09:23:44;2.60;;;1.10;;
75012;SDS011;63567;49.956;20.130;2023-01-05T09:26:10;2.65;;;1.10;;
75012;SDS011;63567;49.956;20.130;2023-01-05T09:28:37;2.53;;;0.85;;
75012;SDS011;63567;49.956;20.130;2023-01-05T09:31:11;2.88;;;0.90;;
75012;SDS011;63567;49.956;20.130;2023-01-05T09:33:37;2.17;;;0.77;;
75012;SDS011;63567;49.956;20.130;2023-01-05T09:36:03;2.60;;;0.70;;
75012;SDS011;63567;49.956;20.130;2023-01-05T09:38:28;2.30;;;0.73;;
75012;SDS011;63567;49.956;20.130;2023-01-05T09:40:54;2.80;;;0.70;;
75012;SDS011;63567;49.956;20.130;2023-01-05T09:43:26;3.15;;;0.90;;
75012;SDS011;63567;49.956;20.130;2023-01-05T09:45:55;2.72;;;1.10;;
75012;SDS011;63567;49.956;20.130;2023-01-05T09:48:21;2.50;;;1.13;;
75012;SDS011;63567;49.956;20.130;2023-01-05T09:50:49;2.22;;;1.10;;
75012;SDS011;63567;49.956;20.130;2023-01-05T09:53:17;2.53;;;0.95;;
75012;SDS011;63567;49.956;20.130;2023-01-05T09:55:47;1.98;;;0.70;;
75012;SDS011;63567;49.956;20.130;2023-01-05T09:58:14;3.05;;;1.20;;
75012;SDS011;63567;49.956;20.130;2023-01-05T10:00:49;3.53;;;1.20;;
75012;SDS011;63567;49.956;20.130;2023-01-05T10:03:35;3.70;;;1.10;;
75012;SDS011;63567;49.956;20.130;2023-01-05T10:06:05;4.05;;;1.10;;
75012;SDS011;63567;49.956;20.130;2023-01-05T10:08:37;3.13;;;1.13;;
75012;SDS011;63567;49.956;20.130;2023-01-05T10:11:08;3.88;;;1.58;;
75012;SDS011;63567;49.956;20.130;2023-01-05T10:14:00;2.58;;;1.33;;
75012;SDS011;63567;49.956;20.130;2023-01-05T10:16:30;3.90;;;1.17;;
75012;SDS011;63567;49.956;20.130;2023-01-05T10:18:56;2.67;;;1.17;;
75012;SDS011;63567;49.956;20.130;2023-01-05T10:21:38;2.38;;;0.98;;
75012;SDS011;63567;49.956;20.130;2023-01-05T10:27:18;2.75;;;1.25;;
75012;SDS011;63567;49.956;20.130;2023-01-05T10:29:52;3.38;;;1.02;;
75012;SDS011;63567;49.956;20.130;2023-01-05T10:32:23;3.42;;;1.02;;
75012;SDS011;63567;49.956;20.130;2023-01-05T10:46:28;3.05;;;0.88;;
75012;SDS011;63567;49.956;20.130;2023-01-05T10:48:53;2.47;;;0.82;;
75012;SDS011;63567;49.956;20.130;2023-01-05T10:51:18;3.77;;;1.10;;
75012;SDS011;63567;49.956;20.130;2023-01-05T10:53:45;3.33;;;1.00;;
75012;SDS011;63567;49.956;20.130;2023-01-05T10:56:15;3.10;;;1.05;;
75012;SDS011;63567;49.956;20.130;2023-01-05T10:58:47;4.07;;;1.20;;
75012;SDS011;63567;49.956;20.130;2023-01-05T11:01:29;3.42;;;1.10;;
75012;SDS011;63567;49.956;20.130;2023-01-05T11:04:00;3.67;;;1.30;;
75012;SDS011;63567;49.956;20.130;2023-01-05T11:06:31;3.03;;;1.30;;
75012;SDS011;63567;49.956;20.130;2023-01-05T11:11:36;3.55;;;1.70;;
75012;SDS011;63567;49.956;20.130;2023-01-05T11:14:02;2.50;;;1.20;;
75012;SDS011;63567;49.956;20.130;2023-01-05T11:16:29;3.72;;;1.45;;
75012;SDS011;63567;49.956;20.130;2023-01-05T11:18:58;3.97;;;1.63;;
75012;SDS011;63567;49.956;20.130;2023-01-05T11:21:26;2.88;;;1.05;;
75012;SDS011;63567;49.956;20.130;2023-01-05T11:24:24;3.47;;;1.20;;
75012;SDS011;63567;49.956;20.130;2023-01-05T11:26:53;2.60;;;1.23;;
75012;SDS011;63567;49.956;20.130;2023-01-05T11:29:23;3.67;;;1.50;;
75012;SDS011;63567;49.956;20.130;2023-01-05T11:31:51;3.50;;;1.50;;
75012;SDS011;63567;49.956;20.130;2023-01-05T11:34:28;4.82;;;1.50;;
75012;SDS011;63567;49.956;20.130;2023-01-05T11:37:26;3.05;;;1.40;;
75012;SDS011;63567;49.956;20.130;2023-01-05T11:47:22;3.97;;;1.88;;
75012;SDS011;63567;49.956;20.130;2023-01-05T11:49:56;3.63;;;1.10;;
75012;SDS011;63567;49.956;20.130;2023-01-05T11:52:24;4.25;;;1.60;;
75012;SDS011;63567;49.956;20.130;2023-01-05T11:54:57;3.10;;;1.48;;
75012;SDS011;63567;49.956;20.130;2023-01-05T11:57:23;3.87;;;1.40;;
75012;SDS011;63567;49.956;20.130;2023-01-05T11:59:49;2.97;;;1.10;;
75012;SDS011;63567;49.956;20.130;2023-01-05T12:05:01;3.92;;;1.15;;
75012;SDS011;63567;49.956;20.130;2023-01-05T12:07:40;2.78;;;1.10;;
75012;SDS011;63567;49.956;20.130;2023-01-05T12:20:48;2.92;;;1.25;;
75012;SDS011;63567;49.956;20.130;2023-01-05T12:23:26;3.60;;;1.42;;
75012;SDS011;63567;49.956;20.130;2023-01-05T12:26:12;4.13;;;1.45;;
75012;SDS011;63567;49.956;20.130;2023-01-05T12:28:55;3.72;;;1.40;;
75012;SDS011;63567;49.956;20.130;2023-01-05T12:37:25;2.90;;;1.20;;
75012;SDS011;63567;49.956;20.130;2023-01-05T12:40:37;3.45;;;1.42;;
75012;SDS011;63567;49.956;20.130;2023-01-05T12:43:02;3.75;;;1.10;;
75012;SDS011;63567;49.956;20.130;2023-01-05T12:48:15;2.83;;;1.33;;
75012;SDS011;63567;49.956;20.130;2023-01-05T12:50:50;4.10;;;1.58;;
75012;SDS011;63567;49.956;20.130;2023-01-05T12:53:32;4.30;;;1.80;;
75012;SDS011;63567;49.956;20.130;2023-01-05T12:58:54;3.47;;;1.60;;
75012;SDS011;63567;49.956;20.130;2023-01-05T13:01:28;4.53;;;1.15;;
75012;SDS011;63567;49.956;20.130;2023-01-05T13:04:01;3.60;;;1.35;;
75012;SDS011;63567;49.956;20.130;2023-01-05T13:06:36;3.72;;;1.50;;
75012;SDS011;63567;49.956;20.130;2023-01-05T13:09:11;5.03;;;1.63;;
75012;SDS011;63567;49.956;20.130;2023-01-05T13:11:43;3.95;;;1.63;;
75012;SDS011;63567;49.956;20.130;2023-01-05T13:21:46;3.95;;;1.60;;
75012;SDS011;63567;49.956;20.130;2023-01-05T13:24:14;4.32;;;1.85;;
75012;SDS011;63567;49.956;20.130;2023-01-05T13:26:47;5.25;;;1.98;;
75012;SDS011;63567;49.956;20.130;2023-01-05T13:29:31;3.92;;;1.60;;
75012;SDS011;63567;49.956;20.130;2023-01-05T13:32:05;6.75;;;2.90;;
75012;SDS011;63567;49.956;20.130;2023-01-05T13:34:45;5.15;;;2.25;;
75012;SDS011;63567;49.956;20.130;2023-01-05T13:46:37;3.78;;;2.03;;
75012;SDS011;63567;49.956;20.130;2023-01-05T13:49:22;5.63;;;2.08;;
75012;SDS011;63567;49.956;20.130;2023-01-05T13:51:58;4.07;;;1.58;;
75012;SDS011;63567;49.956;20.130;2023-01-05T13:54:36;5.13;;;1.92;;
75012;SDS011;63567;49.956;20.130;2023-01-05T13:57:08;4.35;;;1.50;;
75012;SDS011;63567;49.956;20.130;2023-01-05T13:59:38;3.85;;;1.73;;
75012;SDS011;63567;49.956;20.130;2023-01-05T14:04:55;2.47;;;1.05;;
75012;SDS011;63567;49.956;20.130;2023-01-05T14:07:22;1.70;;;0.57;;
75012;SDS011;63567;49.956;20.130;2023-01-05T14:09:49;2.97;;;1.08;;
75012;SDS011;63567;49.956;20.130;2023-01-05T14:20:33;2.90;;;0.82;;
75012;SDS011;63567;49.956;20.130;2023-01-05T14:22:59;2.90;;;0.90;;
75012;SDS011;63567;49.956;20.130;2023-01-05T14:31:30;1.88;;;0.50;;
75012;SDS011;63567;49.956;20.130;2023-01-05T14:33:51;1.58;;;0.47;;
75012;SDS011;63567;49.956;20.130;2023-01-05T14:39:44;1.95;;;0.32;;
75012;SDS011;63567;49.956;20.130;2023-01-05T14:44:42;1.20;;;0.40;;
75012;SDS011;63567;49.956;20.130;2023-01-05T14:47:13;1.25;;;0.40;;
75012;SDS011;63567;49.956;20.130;2023-01-05T14:49:41;1.48;;;0.40;;
75012;SDS011;63567;49.956;20.130;2023-01-05T14:52:16;2.28;;;0.55;;
75012;SDS011;63567;49.956;20.130;2023-01-05T14:59:48;2.28;;;0.70;;
75012;SDS011;63567;49.956;20.130;2023-01-05T15:02:20;2.10;;;0.80;;
75012;SDS011;63567;49.956;20.130;2023-01-05T15:04:51;1.95;;;0.65;;
75012;SDS011;63567;49.956;20.130;2023-01-05T15:23:38;3.30;;;0.88;;
75012;SDS011;63567;49.956;20.130;2023-01-05T15:26:25;1.95;;;0.77;;
75012;SDS011;63567;49.956;20.130;2023-01-05T15:29:06;2.78;;;1.10;;
75012;SDS011;63567;49.956;20.130;2023-01-05T15:36:57;2.92;;;1.13;;
75012;SDS011;63567;49.956;20.130;2023-01-05T15:39:32;2.88;;;1.20;;
75012;SDS011;63567;49.956;20.130;2023-01-05T15:42:08;3.78;;;1.08;;
75012;SDS011;63567;49.956;20.130;2023-01-05T15:44:35;3.00;;;1.20;;
75012;SDS011;63567;49.956;20.130;2023-01-05T15:47:03;3.28;;;1.30;;
75012;SDS011;63567;49.956;20.130;2023-01-05T15:49:32;3.28;;;1.45;;
75012;SDS011;63567;49.956;20.130;2023-01-05T15:51:58;3.30;;;1.73;;
75012;SDS011;63567;49.956;20.130;2023-01-05T15:54:25;3.95;;;1.92;;
75012;SDS011;63567;49.956;20.130;2023-01-05T15:56:53;4.53;;;2.28;;
75012;SDS011;63567;49.956;20.130;2023-01-05T15:59:30;4.45;;;2.53;;
75012;SDS011;63567;49.956;20.130;2023-01-05T16:01:58;5.63;;;2.75;;
75012;SDS011;63567;49.956;20.130;2023-01-05T16:04:24;5.23;;;2.20;;
75012;SDS011;63567;49.956;20.130;2023-01-05T16:06:53;4.10;;;2.38;;
75012;SDS011;63567;49.956;20.130;2023-01-05T16:09:28;5.00;;;2.38;;
75012;SDS011;63567;49.956;20.130;2023-01-05T16:14:55;6.13;;;2.78;;
75012;SDS011;63567;49.956;20.130;2023-01-05T16:17:26;5.00;;;2.75;;
75012;SDS011;63567;49.956;20.130;2023-01-05T16:20:13;5.38;;;2.95;;
75012;SDS011;63567;49.956;20.130;2023-01-05T16:22:44;5.78;;;2.20;;
75012;SDS011;63567;49.956;20.130;2023-01-05T16:25:29;5.30;;;2.13;;
75012;SDS011;63567;49.956;20.130;2023-01-05T16:28:00;4.97;;;2.45;;
75012;SDS011;63567;49.956;20.130;2023-01-05T16:33:15;3.73;;;2.13;;
75012;SDS011;63567;49.956;20.130;2023-01-05T16:38:14;4.43;;;1.60;;
75012;SDS011;63567;49.956;20.130;2023-01-05T16:41:01;3.10;;;1.40;;
75012;SDS011;63567;49.956;20.130;2023-01-05T16:56:50;3.90;;;1.42;;
75012;SDS011;63567;49.956;20.130;2023-01-05T16:59:41;4.90;;;2.20;;
75012;SDS011;63567;49.956;20.130;2023-01-05T17:05:02;4.47;;;2.00;;
75012;SDS011;63567;49.956;20.130;2023-01-05T17:07:27;4.38;;;2.10;;
75012;SDS011;63567;49.956;20.130;2023-01-05T17:09:53;5.20;;;2.33;;
75012;SDS011;63567;49.956;20.130;2023-01-05T17:12:18;4.78;;;2.00;;
75012;SDS011;63567;49.956;20.130;2023-01-05T17:14:44;2.13;;;1.20;;
75012;SDS011;63567;49.956;20.130;2023-01-05T17:17:11;2.85;;;1.13;;
75012;SDS011;63567;49.956;20.130;2023-01-05T17:19:36;2.85;;;1.23;;
75012;SDS011;63567;49.956;20.130;2023-01-05T17:22:02;3.10;;;1.40;;
75012;SDS011;63567;49.956;20.130;2023-01-05T17:24:31;2.70;;;1.02;;